Terminal Aerodrome Forecast
Issued by NWS Raleigh/Durham, NC

Home | Current Version | Previous Version | Text Only | Print | Product List | Glossary On
Versions: 1 2 3 4 5 6 7 8 9 10 11 12 13 14 15 16 17 18 19 20 21 22 23 24 25 26 27 28
000
FTUS42 KRAH 260207 AAA
TAFFAY
TAF AMD
KFAY 260207Z 2602/2624 05006KT P6SM SCT020 BKN035
     FM260400 06003KT P6SM BKN020
     FM261800 11005KT P6SM BKN035=

USA.gov is the U.S. government's official web portal to all federal, state and local government web resources and services.